createdAt,value
2018-04-13T00:03:18.074Z,77
2018-04-13T00:08:46.170Z,77
2018-04-13T00:14:13.277Z,78
2018-04-13T00:19:41.353Z,78
2018-04-13T00:25:09.359Z,78
2018-04-13T00:30:36.441Z,78
2018-04-13T00:36:03.547Z,78
2018-04-13T00:41:30.576Z,78
2018-04-13T00:46:57.614Z,78
2018-04-13T00:52:24.652Z,78
2018-04-13T00:57:52.745Z,78
2018-04-13T01:03:20.749Z,78
2018-04-13T01:08:47.903Z,78
2018-04-13T01:14:14.928Z,78
2018-04-13T01:19:42.003Z,78
2018-04-13T01:25:09.018Z,78
2018-04-13T01:30:37.046Z,78
2018-04-13T01:36:04.104Z,78
2018-04-13T01:41:31.216Z,79
2018-04-13T01:46:58.280Z,79
2018-04-13T01:52:25.405Z,79
2018-04-13T01:57:52.311Z,79
2018-04-13T02:03:19.382Z,79
2018-04-13T02:08:46.449Z,79
2018-04-13T02:14:13.488Z,79
2018-04-13T02:19:40.521Z,79
2018-04-13T02:25:08.595Z,79
2018-04-13T02:30:36.655Z,79
2018-04-13T02:36:04.733Z,79
2018-04-13T02:41:31.756Z,79
2018-04-13T02:46:58.821Z,79
2018-04-13T02:52:27.011Z,79
2018-04-13T02:57:54.994Z,80
2018-04-13T03:03:22.042Z,80
2018-04-13T03:08:50.110Z,80
2018-04-13T03:14:17.146Z,80
2018-04-13T03:19:44.221Z,80
2018-04-13T03:25:11.606Z,80
2018-04-13T03:30:39.375Z,80
2018-04-13T03:36:06.414Z,80
2018-04-13T03:41:34.493Z,80
2018-04-13T03:47:02.557Z,80
2018-04-13T03:52:30.695Z,80
2018-04-13T04:03:24.801Z,80
2018-04-13T04:08:51.976Z,80
2018-04-13T04:14:19.936Z,80
2018-04-13T04:19:47.180Z,80
2018-04-13T04:30:43.282Z,81
2018-04-13T04:36:10.221Z,81
2018-04-13T04:41:37.582Z,81
2018-04-13T04:47:05.326Z,81
2018-04-13T04:52:32.572Z,81
2018-04-13T05:03:26.543Z,81
2018-04-13T05:08:54.584Z,81
2018-04-13T05:14:21.660Z,82
2018-04-13T05:19:48.736Z,82
2018-04-13T05:25:15.814Z,82
2018-04-13T05:30:43.936Z,82
2018-04-13T05:41:39.085Z,82
2018-04-13T05:47:07.239Z,82
2018-04-13T05:52:34.313Z,82
2018-04-13T05:58:01.377Z,82
2018-04-13T06:03:29.506Z,82
2018-04-13T06:08:56.673Z,82
2018-04-13T06:19:50.788Z,82
2018-04-13T06:25:17.966Z,82
2018-04-13T06:30:44.973Z,82
2018-04-13T06:36:12.151Z,82
2018-04-13T06:41:40.328Z,82
2018-04-13T06:47:08.350Z,82
2018-04-13T06:52:35.475Z,82
2018-04-13T06:58:02.645Z,83
2018-04-13T07:03:29.783Z,83
2018-04-13T07:08:57.933Z,83
2018-04-13T07:14:25.102Z,83
2018-04-13T07:19:53.271Z,83
2018-04-13T07:25:20.490Z,83
2018-04-13T07:30:48.596Z,83
2018-04-13T07:36:17.445Z,83
2018-04-13T07:41:43.929Z,83
2018-04-13T07:47:12.503Z,82
2018-04-13T07:52:39.484Z,82
2018-04-13T07:58:06.562Z,82
2018-04-13T08:03:33.820Z,83
2018-04-13T08:09:01.022Z,82
2018-04-13T08:14:29.256Z,82
2018-04-13T08:19:56.485Z,83
2018-04-13T08:25:24.737Z,83
2018-04-13T08:30:53.019Z,83
2018-04-13T08:36:21.234Z,83
2018-04-13T08:41:49.541Z,82
2018-04-13T08:47:17.779Z,82
2018-04-13T08:52:46.071Z,82
2018-04-13T08:58:14.357Z,82
2018-04-13T09:03:41.687Z,82
2018-04-13T09:09:10.001Z,83
2018-04-13T09:14:37.353Z,82
2018-04-13T09:20:04.620Z,82
2018-04-13T09:25:32.132Z,82
2018-04-13T09:31:00.272Z,82
2018-04-13T09:36:27.547Z,81
2018-04-13T09:41:55.949Z,81
2018-04-13T09:47:23.345Z,82
2018-04-13T09:52:50.759Z,82
2018-04-13T09:58:18.226Z,82
2018-04-13T10:03:46.521Z,82
2018-04-13T10:09:13.923Z,82
2018-04-13T10:14:41.309Z,82
2018-04-13T10:20:09.704Z,81
2018-04-13T10:25:37.313Z,82
2018-04-13T10:31:04.517Z,82
2018-04-13T10:36:32.905Z,82
2018-04-13T10:42:00.309Z,81
2018-04-13T10:47:27.748Z,81
2018-04-13T10:52:55.189Z,81
2018-04-13T10:58:23.575Z,81
2018-04-13T11:03:50.972Z,81
2018-04-13T11:09:19.388Z,81
2018-04-13T11:14:46.812Z,81
2018-04-13T11:20:14.239Z,81
2018-04-13T11:25:42.661Z,81
2018-04-13T11:31:11.123Z,81
2018-04-13T11:36:39.925Z,81
2018-04-13T11:42:08.003Z,81
2018-04-13T11:47:35.470Z,81
2018-04-13T11:53:03.838Z,81
2018-04-13T11:58:32.464Z,81
2018-04-13T12:03:59.708Z,81
2018-04-13T12:09:27.996Z,81
2018-04-13T12:14:55.366Z,81
2018-04-13T12:20:23.715Z,81
2018-04-13T12:25:51.119Z,81
2018-04-13T12:31:18.505Z,80
2018-04-13T12:36:46.887Z,80
2018-04-13T12:42:15.275Z,80
2018-04-13T12:47:42.715Z,80
2018-04-13T12:53:10.259Z,81
2018-04-13T12:58:38.623Z,81
2018-04-13T13:04:07.002Z,81
2018-04-13T13:09:35.426Z,81
2018-04-13T13:15:02.775Z,81
2018-04-13T13:20:30.160Z,82
2018-04-13T13:25:57.541Z,82
2018-04-13T13:31:24.949Z,82
2018-04-13T13:36:53.338Z,82
2018-04-13T13:42:20.772Z,82
2018-04-13T13:47:48.945Z,82
2018-04-13T13:53:16.499Z,82
2018-04-13T13:58:44.677Z,82
2018-04-13T14:04:12.044Z,82
2018-04-13T14:09:40.425Z,82
2018-04-13T14:15:07.741Z,82
2018-04-13T14:20:35.070Z,82
2018-04-13T14:26:02.414Z,82
2018-04-13T14:31:29.736Z,82
2018-04-13T14:36:58.115Z,82
2018-04-13T14:42:26.530Z,82
2018-04-13T14:47:54.875Z,82
2018-04-13T14:53:22.253Z,82
2018-04-13T14:58:50.643Z,82
2018-04-13T15:04:19.071Z,83
2018-04-13T15:09:46.385Z,83
2018-04-13T15:15:15.069Z,83
2018-04-13T15:20:42.069Z,83
2018-04-13T15:26:09.462Z,83
2018-04-13T15:31:36.793Z,83
2018-04-13T15:37:04.207Z,83
2018-04-13T15:42:31.520Z,83
2018-04-13T15:47:59.863Z,83
2018-04-13T15:53:27.221Z,83
2018-04-13T15:58:55.547Z,83
2018-04-13T16:04:23.962Z,83
2018-04-13T16:09:51.247Z,83
2018-04-13T16:15:19.559Z,83
2018-04-13T16:20:46.993Z,83
2018-04-13T16:26:14.203Z,83
2018-04-13T16:31:41.701Z,83
2018-04-13T16:37:09.901Z,83
2018-04-13T16:42:37.197Z,83
2018-04-13T16:48:05.475Z,83
2018-04-13T16:53:33.834Z,83
2018-04-13T16:59:02.163Z,83
2018-04-13T17:04:30.467Z,83
2018-04-13T17:09:57.778Z,83
2018-04-13T17:15:25.060Z,83
2018-04-13T17:20:53.288Z,83
2018-04-13T17:26:20.574Z,83
2018-04-13T17:31:48.993Z,83
2018-04-13T17:37:16.091Z,83
2018-04-13T17:42:44.345Z,83
2018-04-13T17:48:11.573Z,83
2018-04-13T17:53:38.762Z,83
2018-04-13T17:59:05.960Z,83
2018-04-13T18:04:34.179Z,83
2018-04-13T18:10:02.341Z,83
2018-04-13T18:15:29.573Z,83
2018-04-13T18:20:56.796Z,83
2018-04-13T18:26:23.913Z,83
2018-04-13T18:31:52.114Z,83
2018-04-13T18:37:19.292Z,83
2018-04-13T18:42:46.743Z,83
2018-04-13T18:48:13.650Z,83
2018-04-13T18:53:41.838Z,82
2018-04-13T18:59:09.979Z,82
2018-04-13T19:04:38.166Z,82
2018-04-13T19:10:05.279Z,82
2018-04-13T19:15:32.449Z,82
2018-04-13T19:21:00.640Z,82
2018-04-13T19:26:32.776Z,82
2018-04-13T19:31:54.872Z,82
2018-04-13T19:37:22.043Z,82
2018-04-13T19:42:50.247Z,82
2018-04-13T19:48:18.318Z,82
2018-04-13T19:53:46.799Z,82
2018-04-13T19:59:14.604Z,82
2018-04-13T20:04:42.746Z,82
2018-04-13T20:10:09.829Z,82
2018-04-13T20:15:37.081Z,82
2018-04-13T20:21:05.065Z,82
2018-04-13T20:26:32.186Z,82
2018-04-13T20:32:00.447Z,82
2018-04-13T20:37:27.463Z,82
2018-04-13T20:42:55.597Z,82
2018-04-13T20:48:24.414Z,82
2018-04-13T20:53:51.002Z,82
2018-04-13T20:59:17.983Z,82
2018-04-13T21:04:46.352Z,82
2018-04-13T21:10:13.268Z,82
2018-04-13T21:15:40.418Z,82
2018-04-13T21:21:08.516Z,82
2018-04-13T21:26:36.767Z,82
2018-04-13T21:32:03.808Z,82
2018-04-13T21:37:30.951Z,82
2018-04-13T21:42:58.020Z,82
2018-04-13T21:48:26.257Z,82
2018-04-13T21:53:53.389Z,82
2018-04-13T21:59:20.460Z,82
2018-04-13T22:04:47.569Z,82
2018-04-13T22:10:15.713Z,82
2018-04-13T22:15:42.811Z,82
2018-04-13T22:21:10.926Z,83
2018-04-13T22:26:38.060Z,83
2018-04-13T22:32:06.183Z,83
2018-04-13T22:37:34.327Z,83
2018-04-13T22:43:02.404Z,83
2018-04-13T22:48:30.560Z,83
2018-04-13T22:53:58.638Z,83
2018-04-13T22:59:26.753Z,83
2018-04-13T23:04:54.948Z,83
2018-04-13T23:10:22.026Z,83
2018-04-13T23:15:50.150Z,83
2018-04-13T23:21:18.196Z,83
2018-04-13T23:26:46.318Z,83
2018-04-13T23:32:14.457Z,83
2018-04-13T23:37:42.553Z,84
2018-04-13T23:43:09.776Z,84
2018-04-13T23:48:37.798Z,84
2018-04-13T23:54:05.903Z,84
2018-04-13T23:59:33.042Z,84
